Time;durP1;ratioP1;P1;durP2;ratioP2;P2;SDS_P1;SDS_P2;PMS_P1;PMS_P2;Temp;Humidity;BMP_temperature;BMP_pressure;BME280_temperature;BME280_humidity;BME280_pressure;Samples;Min_cycle;Max_cycle;Signal;HPM_P1;HPM_P2
2023/06/11 00:02:11;;;;;;;10.27;6.03;;;;;;;;;;5054826;28;20229;-60
2023/06/11 00:04:37;;;;;;;7.97;6.00;;;;;;;;;;5054115;28;20538;-60
2023/06/11 00:07:05;;;;;;;11.63;5.85;;;;;;;;;;5054920;28;20218;-60
2023/06/11 00:09:30;;;;;;;10.38;6.72;;;;;;;;;;5038770;28;20212;-60
2023/06/11 00:11:55;;;;;;;8.48;6.45;;;;;;;;;;5034463;28;20294;-60
2023/06/11 00:14:21;;;;;;;11.05;6.38;;;;;;;;;;5034259;28;20216;-60
2023/06/11 00:16:47;;;;;;;16.77;6.82;;;;;;;;;;5034809;28;20243;-60
2023/06/11 00:19:12;;;;;;;12.48;6.80;;;;;;;;;;5033626;28;20285;-59
2023/06/11 00:21:43;;;;;;;10.27;6.55;;;;;;;;;;5034845;28;20273;-60
2023/06/11 00:24:09;;;;;;;8.60;6.55;;;;;;;;;;5034088;28;20215;-60
2023/06/11 00:26:34;;;;;;;9.80;6.43;;;;;;;;;;5034033;28;20583;-60
2023/06/11 00:28:59;;;;;;;24.40;7.30;;;;;;;;;;5034415;28;20208;-60
2023/06/11 00:31:24;;;;;;;11.35;6.75;;;;;;;;;;5034303;28;20686;-60
2023/06/11 00:33:50;;;;;;;12.52;6.72;;;;;;;;;;5033679;28;20208;-60
2023/06/11 00:36:15;;;;;;;10.80;6.45;;;;;;;;;;5034035;28;20208;-60
2023/06/11 00:38:41;;;;;;;9.45;7.22;;;;;;;;;;5034252;28;20220;-60
2023/06/11 00:41:06;;;;;;;12.30;7.25;;;;;;;;;;5033350;28;20250;-60
2023/06/11 00:43:31;;;;;;;9.32;7.00;;;;;;;;;;5034174;28;20238;-60
2023/06/11 00:45:57;;;;;;;10.35;6.80;;;;;;;;;;5034309;28;20219;-60
2023/06/11 00:48:22;;;;;;;9.70;7.10;;;;;;;;;;5033133;28;20219;-60
2023/06/11 00:50:50;;;;;;;42.42;8.52;;;;;;;;;;5034091;28;20595;-60
2023/06/11 00:53:17;;;;;;;37.50;8.27;;;;;;;;;;5033770;28;20230;-60
2023/06/11 00:55:43;;;;;;;20.05;7.20;;;;;;;;;;5038363;28;20265;-60
2023/06/11 00:58:13;;;;;;;19.13;7.13;;;;;;;;;;5053606;28;20223;-59
2023/06/11 01:00:49;;;;;;;12.55;6.90;;;;;;;;;;5051902;28;20302;-60
2023/06/11 01:03:17;;;;;;;10.02;6.47;;;;;;;;;;5053484;28;20285;-60
2023/06/11 01:06:01;;;;;;;10.80;7.10;;;;;;;;;;5052449;28;20203;-60
2023/06/11 01:08:26;;;;;;;11.13;7.10;;;;;;;;;;5045405;28;20211;-60
2023/06/11 01:10:52;;;;;;;8.85;6.82;;;;;;;;;;5034059;28;20253;-60
2023/06/11 01:13:17;;;;;;;10.90;7.55;;;;;;;;;;5033440;28;20559;-60
2023/06/11 01:15:42;;;;;;;11.20;6.88;;;;;;;;;;5032883;28;20208;-60
2023/06/11 01:18:23;;;;;;;11.07;7.53;;;;;;;;;;5033259;28;20223;-60
2023/06/11 01:20:50;;;;;;;11.50;6.95;;;;;;;;;;5032558;28;20218;-60
2023/06/11 01:23:20;;;;;;;12.60;7.13;;;;;;;;;;5031277;28;20200;-60
2023/06/11 01:26:03;;;;;;;11.02;7.68;;;;;;;;;;5033586;28;20230;-60
2023/06/11 01:28:28;;;;;;;17.55;7.80;;;;;;;;;;5031429;28;20211;-60
2023/06/11 01:30:55;;;;;;;11.35;7.45;;;;;;;;;;5032617;28;20697;-60
2023/06/11 01:33:24;;;;;;;12.02;7.18;;;;;;;;;;5032031;28;20614;-60
2023/06/11 01:35:49;;;;;;;10.90;6.95;;;;;;;;;;5032378;28;20620;-60
2023/06/11 01:38:15;;;;;;;14.32;7.50;;;;;;;;;;5032840;28;20357;-59
2023/06/11 01:40:40;;;;;;;11.70;8.00;;;;;;;;;;5033172;28;20670;-60
2023/06/11 01:43:05;;;;;;;12.57;7.57;;;;;;;;;;5032342;28;20204;-60
2023/06/11 01:45:32;;;;;;;9.45;7.78;;;;;;;;;;5033010;28;20214;-60
2023/06/11 01:47:58;;;;;;;10.40;7.80;;;;;;;;;;5033120;28;20578;-60
2023/06/11 01:50:23;;;;;;;9.95;7.30;;;;;;;;;;5031822;28;20208;-60
2023/06/11 01:52:48;;;;;;;9.73;7.57;;;;;;;;;;5033065;28;20667;-60
2023/06/11 01:55:13;;;;;;;8.98;7.50;;;;;;;;;;5033527;28;20266;-59
2023/06/11 01:57:40;;;;;;;9.40;7.15;;;;;;;;;;5052129;28;20238;-60
2023/06/11 02:00:09;;;;;;;10.82;7.80;;;;;;;;;;5052490;28;20313;-59
2023/06/11 02:02:34;;;;;;;11.82;6.80;;;;;;;;;;5052655;28;20302;-60
2023/06/11 02:05:00;;;;;;;9.35;7.55;;;;;;;;;;5051860;28;20290;-60
2023/06/11 02:07:27;;;;;;;12.82;8.35;;;;;;;;;;5052355;28;20243;-60
2023/06/11 02:09:53;;;;;;;9.27;7.40;;;;;;;;;;5048658;28;20215;-60
2023/06/11 02:12:18;;;;;;;11.15;7.93;;;;;;;;;;5048869;28;20338;-60
2023/06/11 02:14:43;;;;;;;13.13;8.00;;;;;;;;;;5032295;28;20562;-60
2023/06/11 02:17:09;;;;;;;9.52;7.25;;;;;;;;;;5032156;28;20228;-59
2023/06/11 02:19:35;;;;;;;10.23;7.63;;;;;;;;;;5031916;28;20208;-59
2023/06/11 02:22:00;;;;;;;13.30;7.68;;;;;;;;;;5032510;28;20579;-60
2023/06/11 02:24:26;;;;;;;10.23;7.38;;;;;;;;;;5032232;28;20215;-60
2023/06/11 02:26:51;;;;;;;9.73;7.63;;;;;;;;;;5031805;28;20215;-60
2023/06/11 02:29:16;;;;;;;11.32;8.10;;;;;;;;;;5032157;28;20605;-59
2023/06/11 02:31:42;;;;;;;9.82;7.78;;;;;;;;;;5032574;28;20220;-60
2023/06/11 02:34:08;;;;;;;9.00;7.60;;;;;;;;;;5031112;28;20766;-60
2023/06/11 02:36:33;;;;;;;10.90;7.80;;;;;;;;;;5032382;28;20291;-60
2023/06/11 02:38:59;;;;;;;9.70;6.88;;;;;;;;;;5032271;28;20227;-59
2023/06/11 02:41:24;;;;;;;10.88;7.22;;;;;;;;;;5031312;28;20285;-60
2023/06/11 02:43:49;;;;;;;13.23;8.02;;;;;;;;;;5032244;28;20751;-60
2023/06/11 02:46:15;;;;;;;10.10;7.60;;;;;;;;;;5031039;28;20678;-60
2023/06/11 02:48:40;;;;;;;12.32;7.60;;;;;;;;;;5032359;28;20247;-60
2023/06/11 02:51:05;;;;;;;8.57;7.68;;;;;;;;;;5031992;28;20208;-60
2023/06/11 02:53:30;;;;;;;12.23;7.20;;;;;;;;;;5014383;28;20307;-60
2023/06/11 02:55:56;;;;;;;11.18;7.55;;;;;;;;;;5014209;28;20598;-60
2023/06/11 02:58:21;;;;;;;10.38;8.02;;;;;;;;;;5002232;28;20343;-60
2023/06/11 03:00:46;;;;;;;10.70;7.68;;;;;;;;;;5002022;28;20216;-60
2023/06/11 03:03:12;;;;;;;11.68;7.22;;;;;;;;;;5015277;28;20211;-60
2023/06/11 03:05:37;;;;;;;82.88;10.95;;;;;;;;;;4998091;28;20780;-60
2023/06/11 03:08:03;;;;;;;27.00;8.25;;;;;;;;;;4993735;28;20563;-59
2023/06/11 03:10:28;;;;;;;10.82;7.78;;;;;;;;;;5007624;28;20208;-59
2023/06/11 03:12:56;;;;;;;13.43;7.93;;;;;;;;;;5015168;28;20691;-60
2023/06/11 03:15:21;;;;;;;11.50;7.22;;;;;;;;;;5010271;28;20224;-59
2023/06/11 03:17:47;;;;;;;9.93;8.07;;;;;;;;;;5002441;28;20220;-60
2023/06/11 03:20:12;;;;;;;11.75;7.78;;;;;;;;;;5002139;28;20220;-59
2023/06/11 03:22:37;;;;;;;11.18;8.00;;;;;;;;;;5002192;28;20623;-60
2023/06/11 03:25:03;;;;;;;8.85;7.10;;;;;;;;;;4999261;28;20204;-59
2023/06/11 03:27:28;;;;;;;9.48;6.90;;;;;;;;;;5002662;28;20211;-59
2023/06/11 03:29:53;;;;;;;10.63;7.25;;;;;;;;;;5013205;28;20212;-59
2023/06/11 03:32:19;;;;;;;9.98;7.60;;;;;;;;;;5015747;28;20218;-59
2023/06/11 03:34:44;;;;;;;21.83;8.30;;;;;;;;;;5021859;28;20294;-60
2023/06/11 03:37:09;;;;;;;9.65;7.03;;;;;;;;;;5020295;28;20261;-59
2023/06/11 03:39:35;;;;;;;9.27;6.80;;;;;;;;;;5021884;28;20207;-59
2023/06/11 03:42:00;;;;;;;11.52;6.78;;;;;;;;;;5021165;28;20207;-57
2023/06/11 03:44:26;;;;;;;8.07;7.03;;;;;;;;;;5021053;28;20262;-59
2023/06/11 03:46:51;;;;;;;9.18;7.55;;;;;;;;;;5021506;28;20307;-60
2023/06/11 03:49:16;;;;;;;11.20;6.68;;;;;;;;;;5014150;28;20690;-58
2023/06/11 03:51:41;;;;;;;10.73;7.07;;;;;;;;;;5015464;28;20312;-59
2023/06/11 03:54:07;;;;;;;9.00;7.13;;;;;;;;;;5016957;28;20214;-59
2023/06/11 03:56:32;;;;;;;8.40;7.00;;;;;;;;;;5011764;28;20228;-60
2023/06/11 03:58:57;;;;;;;11.15;7.05;;;;;;;;;;5005829;28;20274;-60
2023/06/11 04:01:23;;;;;;;11.07;7.40;;;;;;;;;;5010657;28;20218;-59
2023/06/11 04:03:48;;;;;;;11.18;7.45;;;;;;;;;;5024032;28;20581;-59
2023/06/11 04:06:15;;;;;;;20.95;8.32;;;;;;;;;;5024900;28;20551;-59
2023/06/11 04:08:40;;;;;;;21.30;8.18;;;;;;;;;;5016211;28;20216;-59
2023/06/11 04:11:05;;;;;;;10.23;7.53;;;;;;;;;;4999478;28;20220;-59
2023/06/11 04:13:31;;;;;;;9.23;7.35;;;;;;;;;;4996944;28;20286;-59
2023/06/11 04:15:56;;;;;;;9.25;7.25;;;;;;;;;;4997483;28;20311;-60
2023/06/11 04:18:21;;;;;;;8.87;7.50;;;;;;;;;;5001081;28;20427;-60
2023/06/11 04:20:47;;;;;;;8.80;7.25;;;;;;;;;;5024533;28;20790;-59
2023/06/11 04:23:12;;;;;;;20.15;7.93;;;;;;;;;;5019046;28;20209;-59
2023/06/11 04:25:39;;;;;;;13.35;7.95;;;;;;;;;;5005048;28;20231;-60
2023/06/11 04:28:05;;;;;;;10.63;7.28;;;;;;;;;;5004992;28;20204;-59
2023/06/11 04:30:31;;;;;;;10.88;7.78;;;;;;;;;;5024047;28;20709;-60
2023/06/11 04:32:56;;;;;;;10.50;7.32;;;;;;;;;;5021080;28;20625;-59
2023/06/11 04:35:25;;;;;;;11.25;6.88;;;;;;;;;;5015725;28;20211;-60
2023/06/11 04:37:50;;;;;;;15.95;7.45;;;;;;;;;;5015946;28;20216;-60
2023/06/11 04:40:17;;;;;;;9.55;7.32;;;;;;;;;;5018583;28;20583;-60
2023/06/11 04:42:43;;;;;;;8.30;6.88;;;;;;;;;;5023881;28;20211;-60
2023/06/11 04:45:09;;;;;;;27.23;8.10;;;;;;;;;;5012758;28;20224;-59
2023/06/11 04:47:34;;;;;;;10.70;7.38;;;;;;;;;;5013436;28;20219;-59
2023/06/11 04:50:04;;;;;;;9.73;6.70;;;;;;;;;;5013558;28;20216;-59
2023/06/11 04:52:32;;;;;;;10.48;8.32;;;;;;;;;;5014096;28;20208;-59
2023/06/11 04:55:01;;;;;;;12.90;7.20;;;;;;;;;;5013526;28;20208;-59
2023/06/11 04:57:27;;;;;;;12.32;7.93;;;;;;;;;;5052037;28;20231;-59
2023/06/11 04:59:52;;;;;;;11.20;7.35;;;;;;;;;;5053186;28;20213;-59
2023/06/11 05:02:17;;;;;;;9.95;7.20;;;;;;;;;;5024581;28;20221;-59
2023/06/11 05:04:43;;;;;;;8.77;7.50;;;;;;;;;;5013987;28;20207;-59
2023/06/11 05:07:08;;;;;;;9.13;7.85;;;;;;;;;;5012946;28;20227;-59
2023/06/11 05:09:33;;;;;;;10.75;7.72;;;;;;;;;;5046898;28;20273;-59
2023/06/11 05:11:59;;;;;;;10.50;7.70;;;;;;;;;;5047789;28;20207;-60
2023/06/11 05:14:24;;;;;;;10.13;8.23;;;;;;;;;;5025548;28;20546;-60
2023/06/11 05:16:50;;;;;;;84.60;11.70;;;;;;;;;;5014786;28;20376;-59
2023/06/11 05:19:15;;;;;;;28.50;9.00;;;;;;;;;;5013534;28;20303;-59
2023/06/11 05:21:40;;;;;;;11.45;8.20;;;;;;;;;;5012898;28;20300;-59
2023/06/11 05:24:18;;;;;;;10.05;8.55;;;;;;;;;;5013293;28;20208;-59
2023/06/11 05:26:43;;;;;;;64.63;11.57;;;;;;;;;;5013610;28;20307;-59
2023/06/11 05:29:09;;;;;;;10.57;8.25;;;;;;;;;;5012538;28;20283;-59
2023/06/11 05:31:35;;;;;;;13.55;8.50;;;;;;;;;;5013693;28;20396;-59
2023/06/11 05:34:01;;;;;;;10.40;7.63;;;;;;;;;;5013436;28;20573;-58
2023/06/11 05:36:27;;;;;;;9.95;8.48;;;;;;;;;;5012464;28;20208;-60
2023/06/11 05:38:52;;;;;;;11.25;8.25;;;;;;;;;;5013481;28;20711;-60
2023/06/11 05:41:18;;;;;;;11.63;8.70;;;;;;;;;;5021451;28;20570;-60
2023/06/11 05:43:43;;;;;;;11.02;8.30;;;;;;;;;;5026647;28;20745;-59
2023/06/11 05:46:09;;;;;;;10.30;9.20;;;;;;;;;;5031989;28;20219;-60
2023/06/11 05:48:35;;;;;;;17.08;8.93;;;;;;;;;;5025492;28;20264;-60
2023/06/11 05:51:01;;;;;;;15.18;9.50;;;;;;;;;;5029232;28;20223;-59
2023/06/11 05:53:26;;;;;;;11.73;8.90;;;;;;;;;;5026043;28;20203;-59
2023/06/11 05:55:51;;;;;;;11.55;8.57;;;;;;;;;;5037830;28;20203;-60
2023/06/11 05:58:16;;;;;;;10.32;8.73;;;;;;;;;;5051403;28;20223;-60
2023/06/11 06:00:42;;;;;;;12.52;9.25;;;;;;;;;;5052881;28;20666;-60
2023/06/11 06:03:08;;;;;;;14.43;8.68;;;;;;;;;;5051672;28;20212;-60
2023/06/11 06:05:33;;;;;;;10.40;8.10;;;;;;;;;;5052851;28;20341;-60
2023/06/11 06:07:58;;;;;;;13.38;9.35;;;;;;;;;;5048806;28;20239;-60
2023/06/11 06:10:24;;;;;;;12.30;8.48;;;;;;;;;;5031681;28;20289;-60
2023/06/11 06:12:49;;;;;;;11.30;9.05;;;;;;;;;;5022888;28;20542;-60
2023/06/11 06:15:14;;;;;;;11.20;8.77;;;;;;;;;;5029700;28;20580;-59
2023/06/11 06:17:40;;;;;;;11.68;8.57;;;;;;;;;;5031760;28;20290;-59
2023/06/11 06:20:06;;;;;;;9.98;8.48;;;;;;;;;;5032355;28;20750;-60
2023/06/11 06:22:31;;;;;;;9.75;8.75;;;;;;;;;;5032236;28;20220;-60
2023/06/11 06:24:56;;;;;;;13.25;8.73;;;;;;;;;;5031776;28;20282;-60
2023/06/11 06:27:22;;;;;;;10.93;8.52;;;;;;;;;;5031710;28;20219;-60
2023/06/11 06:29:47;;;;;;;14.10;8.00;;;;;;;;;;5032552;28;20667;-60
2023/06/11 06:32:13;;;;;;;11.48;8.20;;;;;;;;;;5031126;28;20236;-59
2023/06/11 06:34:38;;;;;;;10.20;8.30;;;;;;;;;;5032388;28;20255;-60
2023/06/11 06:37:03;;;;;;;11.38;8.35;;;;;;;;;;5031900;28;20245;-59
2023/06/11 06:39:29;;;;;;;12.05;8.18;;;;;;;;;;5031582;28;20215;-60
2023/06/11 06:41:54;;;;;;;175.00;19.63;;;;;;;;;;5032263;28;20735;-60
2023/06/11 06:44:19;;;;;;;12.50;8.10;;;;;;;;;;5031556;28;20220;-60
2023/06/11 06:46:45;;;;;;;11.20;7.32;;;;;;;;;;5031535;28;20204;-60
2023/06/11 06:49:10;;;;;;;9.20;7.13;;;;;;;;;;5031772;28;20208;-59
2023/06/11 06:51:37;;;;;;;78.43;12.00;;;;;;;;;;5032081;28;20208;-59
2023/06/11 06:54:02;;;;;;;11.43;7.75;;;;;;;;;;5030528;28;20713;-59
2023/06/11 06:56:28;;;;;;;10.85;7.82;;;;;;;;;;5043158;28;20235;-59
2023/06/11 06:58:53;;;;;;;10.05;7.57;;;;;;;;;;5051717;28;20703;-60
2023/06/11 07:01:18;;;;;;;12.98;7.65;;;;;;;;;;5050824;28;20670;-60
2023/06/11 07:03:43;;;;;;;8.20;6.90;;;;;;;;;;5051999;28;20218;-60
2023/06/11 07:06:09;;;;;;;11.23;7.10;;;;;;;;;;5051422;28;20276;-60
2023/06/11 07:08:34;;;;;;;11.07;7.85;;;;;;;;;;5042433;28;20670;-60
2023/06/11 07:11:00;;;;;;;9.00;6.78;;;;;;;;;;5032081;28;20631;-60
2023/06/11 07:13:25;;;;;;;9.20;7.05;;;;;;;;;;5030673;28;20212;-60
2023/06/11 07:15:50;;;;;;;11.43;7.28;;;;;;;;;;5031731;28;20666;-60
2023/06/11 07:18:16;;;;;;;36.60;8.68;;;;;;;;;;5031269;28;20219;-60
2023/06/11 07:20:41;;;;;;;8.00;7.15;;;;;;;;;;5031056;28;20292;-60
2023/06/11 07:23:07;;;;;;;17.50;7.03;;;;;;;;;;5029065;28;20449;-60
2023/06/11 07:25:33;;;;;;;9.18;6.80;;;;;;;;;;5032784;28;20208;-60
2023/06/11 07:27:59;;;;;;;8.95;7.30;;;;;;;;;;5034864;28;20714;-60
2023/06/11 07:30:25;;;;;;;9.93;6.97;;;;;;;;;;5054413;28;20653;-60
2023/06/11 07:32:52;;;;;;;8.05;6.47;;;;;;;;;;5055462;28;20206;-60
2023/06/11 07:35:18;;;;;;;10.48;6.65;;;;;;;;;;5054381;28;20222;-60
2023/06/11 07:37:45;;;;;;;11.32;6.97;;;;;;;;;;5055558;28;20219;-61
2023/06/11 07:40:11;;;;;;;9.95;6.30;;;;;;;;;;5054687;28;20222;-60
2023/06/11 07:42:36;;;;;;;9.82;6.57;;;;;;;;;;5055016;28;20211;-60
2023/06/11 07:45:02;;;;;;;9.38;6.45;;;;;;;;;;5054525;28;20649;-59
2023/06/11 07:47:29;;;;;;;10.77;6.40;;;;;;;;;;5035321;28;20218;-59
2023/06/11 07:49:54;;;;;;;59.25;10.35;;;;;;;;;;5034442;28;20612;-59
2023/06/11 07:52:20;;;;;;;19.38;6.78;;;;;;;;;;5034728;28;20224;-59
2023/06/11 07:54:46;;;;;;;11.18;5.80;;;;;;;;;;5034992;28;20239;-59
2023/06/11 07:57:14;;;;;;;15.82;6.15;;;;;;;;;;5050792;28;20334;-59
2023/06/11 07:59:42;;;;;;;9.05;6.10;;;;;;;;;;5054818;28;20685;-59
2023/06/11 08:02:09;;;;;;;25.88;7.10;;;;;;;;;;5043973;28;20207;-60
2023/06/11 08:04:34;;;;;;;19.50;5.78;;;;;;;;;;5053744;28;20234;-59
2023/06/11 08:07:00;;;;;;;9.50;5.70;;;;;;;;;;5054777;28;20243;-58
2023/06/11 08:09:25;;;;;;;29.35;7.47;;;;;;;;;;5038856;28;20215;-59
2023/06/11 08:11:50;;;;;;;11.93;5.90;;;;;;;;;;5033887;28;20219;-59
2023/06/11 08:14:18;;;;;;;7.65;5.93;;;;;;;;;;5019187;28;20209;-59
2023/06/11 08:16:44;;;;;;;19.33;6.70;;;;;;;;;;5033887;28;20242;-60
2023/06/11 08:19:10;;;;;;;12.68;6.22;;;;;;;;;;5032878;28;20239;-60
2023/06/11 08:21:35;;;;;;;9.68;5.57;;;;;;;;;;5034784;28;20634;-60
2023/06/11 08:24:01;;;;;;;8.82;5.60;;;;;;;;;;5033443;28;20211;-59
2023/06/11 08:26:27;;;;;;;13.95;5.75;;;;;;;;;;5034685;28;20208;-59
2023/06/11 08:28:52;;;;;;;10.98;5.90;;;;;;;;;;5034509;28;20230;-60
2023/06/11 08:31:18;;;;;;;10.57;6.40;;;;;;;;;;5033308;28;20698;-60
2023/06/11 08:33:43;;;;;;;11.48;5.82;;;;;;;;;;5034391;28;20215;-60
2023/06/11 08:36:11;;;;;;;8.52;5.65;;;;;;;;;;5033645;28;20210;-59
2023/06/11 08:38:36;;;;;;;15.80;6.32;;;;;;;;;;5033835;28;20216;-59
2023/06/11 08:41:01;;;;;;;7.57;5.53;;;;;;;;;;5033631;28;20226;-60
2023/06/11 08:43:27;;;;;;;12.50;5.95;;;;;;;;;;5034276;28;20211;-59
2023/06/11 08:45:52;;;;;;;7.00;5.78;;;;;;;;;;5032046;28;20204;-59
2023/06/11 08:48:18;;;;;;;8.43;5.70;;;;;;;;;;5033752;28;20264;-59
2023/06/11 08:50:44;;;;;;;8.20;5.60;;;;;;;;;;5034176;28;20222;-60
2023/06/11 08:53:12;;;;;;;10.25;6.03;;;;;;;;;;5032832;28;20216;-60
2023/06/11 08:55:37;;;;;;;9.18;5.70;;;;;;;;;;5036700;28;20674;-59
2023/06/11 08:58:03;;;;;;;14.20;5.95;;;;;;;;;;5053324;28;20307;-60
2023/06/11 09:00:28;;;;;;;9.38;5.53;;;;;;;;;;5052930;28;20211;-59
2023/06/11 09:02:53;;;;;;;11.35;5.38;;;;;;;;;;5053594;28;20576;-59
2023/06/11 09:05:19;;;;;;;103.22;10.88;;;;;;;;;;5053271;28;20229;-60
2023/06/11 09:07:50;;;;;;;9.48;6.20;;;;;;;;;;5051635;28;20234;-59
2023/06/11 09:10:15;;;;;;;9.43;5.32;;;;;;;;;;5033308;28;20295;-59
2023/06/11 09:12:40;;;;;;;10.52;5.30;;;;;;;;;;5033825;28;20684;-59
2023/06/11 09:15:06;;;;;;;13.70;5.32;;;;;;;;;;5032244;28;20207;-60
2023/06/11 09:17:38;;;;;;;8.73;5.38;;;;;;;;;;5033389;28;20216;-60
2023/06/11 09:20:04;;;;;;;9.65;6.05;;;;;;;;;;5032415;28;20679;-60
2023/06/11 09:22:30;;;;;;;12.43;5.72;;;;;;;;;;5033601;28;20216;-60
2023/06/11 09:24:55;;;;;;;10.95;5.18;;;;;;;;;;5033485;28;20214;-59
2023/06/11 09:27:21;;;;;;;9.27;6.28;;;;;;;;;;5032091;28;20636;-60
2023/06/11 09:29:46;;;;;;;8.02;5.88;;;;;;;;;;5033427;28;20261;-60
2023/06/11 09:32:12;;;;;;;8.00;5.68;;;;;;;;;;5023033;28;20224;-60
2023/06/11 09:34:37;;;;;;;17.98;6.10;;;;;;;;;;5008534;28;20256;-60
2023/06/11 09:37:03;;;;;;;15.93;6.88;;;;;;;;;;5005382;28;20614;-60
2023/06/11 09:39:29;;;;;;;8.57;5.78;;;;;;;;;;5020476;28;20698;-60
2023/06/11 09:41:54;;;;;;;11.50;5.88;;;;;;;;;;5015622;28;20699;-60
2023/06/11 09:44:20;;;;;;;8.85;6.25;;;;;;;;;;5007289;28;20234;-60
2023/06/11 09:46:48;;;;;;;7.28;5.72;;;;;;;;;;5007451;28;20212;-60
2023/06/11 09:49:15;;;;;;;18.38;5.80;;;;;;;;;;5023725;28;20216;-60
2023/06/11 09:51:42;;;;;;;9.43;5.97;;;;;;;;;;5007607;28;20216;-60
2023/06/11 09:54:08;;;;;;;8.07;5.03;;;;;;;;;;5012734;28;20210;-60
2023/06/11 09:56:34;;;;;;;12.95;5.75;;;;;;;;;;5000003;28;20224;-60
2023/06/11 09:59:02;;;;;;;10.85;5.50;;;;;;;;;;4999247;28;20219;-61
2023/06/11 10:01:29;;;;;;;7.70;5.50;;;;;;;;;;5017368;28;20219;-61
2023/06/11 10:03:55;;;;;;;8.63;5.80;;;;;;;;;;5023878;28;20562;-61
2023/06/11 10:06:21;;;;;;;81.03;8.70;;;;;;;;;;5024774;28;20223;-60
2023/06/11 10:08:48;;;;;;;7.82;4.70;;;;;;;;;;5007903;28;20212;-60
2023/06/11 10:11:14;;;;;;;16.27;5.47;;;;;;;;;;5024645;28;20261;-60
2023/06/11 10:13:40;;;;;;;6.25;4.88;;;;;;;;;;5026350;28;20208;-60
2023/06/11 10:16:08;;;;;;;13.25;5.35;;;;;;;;;;5009778;28;20216;-60
2023/06/11 10:18:34;;;;;;;8.85;4.60;;;;;;;;;;5020807;28;20433;-60
2023/06/11 10:21:02;;;;;;;9.90;5.07;;;;;;;;;;5017962;28;20212;-60
2023/06/11 10:23:38;;;;;;;17.02;5.60;;;;;;;;;;5017699;28;20295;-60
2023/06/11 10:26:03;;;;;;;26.33;5.85;;;;;;;;;;5020808;28;21082;-59
2023/06/11 10:28:36;;;;;;;7.28;5.10;;;;;;;;;;5026089;28;20240;-59
2023/06/11 10:31:02;;;;;;;13.20;5.20;;;;;;;;;;5024988;28;20216;-59
2023/06/11 10:33:35;;;;;;;8.50;5.20;;;;;;;;;;5029251;28;20212;-60
2023/06/11 10:36:01;;;;;;;7.57;4.32;;;;;;;;;;5031763;28;20207;-60
2023/06/11 10:38:28;;;;;;;10.18;4.63;;;;;;;;;;5031730;28;20228;-60
2023/06/11 10:40:53;;;;;;;9.02;5.28;;;;;;;;;;5027051;28;20219;-60
2023/06/11 10:43:19;;;;;;;9.13;5.20;;;;;;;;;;5010762;28;20299;-60
2023/06/11 10:45:44;;;;;;;9.43;4.82;;;;;;;;;;5011859;28;20209;-60
2023/06/11 10:48:11;;;;;;;12.93;5.40;;;;;;;;;;5010399;28;20251;-61
2023/06/11 10:50:36;;;;;;;7.35;4.38;;;;;;;;;;5012497;28;20208;-60
2023/06/11 10:53:03;;;;;;;10.02;4.75;;;;;;;;;;5016436;28;20226;-60
2023/06/11 10:55:29;;;;;;;8.18;4.90;;;;;;;;;;5034631;28;20207;-60
2023/06/11 10:57:55;;;;;;;7.13;4.93;;;;;;;;;;5051722;28;20219;-60
2023/06/11 11:00:20;;;;;;;8.48;4.90;;;;;;;;;;5051801;28;20583;-60
2023/06/11 11:02:47;;;;;;;9.25;4.90;;;;;;;;;;5047308;28;20234;-60
2023/06/11 11:05:12;;;;;;;11.13;4.90;;;;;;;;;;5035671;28;20208;-60
2023/06/11 11:07:38;;;;;;;9.27;5.30;;;;;;;;;;5030335;28;20696;-60
2023/06/11 11:10:05;;;;;;;8.93;4.97;;;;;;;;;;5055323;28;20553;-60
2023/06/11 11:12:38;;;;;;;6.55;4.82;;;;;;;;;;5055352;28;20214;-59
2023/06/11 11:15:04;;;;;;;8.05;4.82;;;;;;;;;;5047395;28;20210;-60
2023/06/11 11:17:30;;;;;;;9.13;4.88;;;;;;;;;;5035561;28;20220;-60
2023/06/11 11:19:56;;;;;;;7.78;5.20;;;;;;;;;;5035358;28;20255;-60
2023/06/11 11:22:21;;;;;;;9.32;4.82;;;;;;;;;;5035267;28;20265;-60
2023/06/11 11:24:47;;;;;;;7.97;4.82;;;;;;;;;;5035641;28;20211;-60
2023/06/11 11:27:12;;;;;;;8.88;5.15;;;;;;;;;;5034791;28;20219;-60
2023/06/11 11:29:37;;;;;;;14.00;5.70;;;;;;;;;;5035502;28;20204;-60
2023/06/11 11:32:03;;;;;;;7.90;4.97;;;;;;;;;;5032149;28;20221;-60
2023/06/11 11:34:28;;;;;;;10.25;5.05;;;;;;;;;;5015216;28;20216;-60
2023/06/11 11:36:54;;;;;;;7.35;4.82;;;;;;;;;;5029709;28;20217;-60
2023/06/11 11:39:20;;;;;;;8.98;5.63;;;;;;;;;;5035086;28;20670;-60
2023/06/11 11:41:46;;;;;;;7.00;4.85;;;;;;;;;;5033331;28;20207;-60
2023/06/11 11:44:13;;;;;;;5.85;5.10;;;;;;;;;;5026421;28;20205;-60
2023/06/11 11:46:38;;;;;;;8.98;5.80;;;;;;;;;;5015734;28;20208;-59
2023/06/11 11:49:03;;;;;;;7.38;5.10;;;;;;;;;;5014691;28;20254;-60
2023/06/11 11:51:29;;;;;;;10.18;5.03;;;;;;;;;;5015063;28;20288;-60
2023/06/11 11:53:54;;;;;;;9.93;5.50;;;;;;;;;;5015640;28;20358;-60
2023/06/11 11:56:20;;;;;;;13.20;5.65;;;;;;;;;;5034330;28;20234;-59
2023/06/11 11:58:45;;;;;;;8.60;5.25;;;;;;;;;;5054768;28;20226;-60
2023/06/11 12:01:16;;;;;;;7.07;5.10;;;;;;;;;;5054481;28;20210;-59
2023/06/11 12:03:41;;;;;;;8.63;5.00;;;;;;;;;;5054630;28;20218;-60
2023/06/11 12:06:07;;;;;;;5.68;4.97;;;;;;;;;;5054310;28;20207;-60
2023/06/11 12:08:33;;;;;;;6.18;4.97;;;;;;;;;;5049424;28;20223;-60
2023/06/11 12:10:58;;;;;;;6.78;4.93;;;;;;;;;;5053903;28;20608;-60
2023/06/11 12:13:24;;;;;;;9.45;4.75;;;;;;;;;;5054075;28;20211;-60
2023/06/11 12:15:49;;;;;;;5.90;4.55;;;;;;;;;;5039765;28;20682;-60
2023/06/11 12:18:15;;;;;;;12.40;5.10;;;;;;;;;;5028789;28;20220;-60
2023/06/11 12:20:40;;;;;;;7.18;4.28;;;;;;;;;;5017182;28;20224;-61
2023/06/11 12:23:06;;;;;;;22.75;5.72;;;;;;;;;;5014006;28;20355;-60
2023/06/11 12:25:32;;;;;;;9.70;4.60;;;;;;;;;;5015105;28;20200;-60
2023/06/11 12:27:57;;;;;;;5.90;4.75;;;;;;;;;;5014543;28;20687;-60
2023/06/11 12:30:22;;;;;;;6.88;4.47;;;;;;;;;;5013880;28;20213;-60
2023/06/11 12:32:48;;;;;;;7.93;4.28;;;;;;;;;;5014508;28;20201;-60
2023/06/11 12:35:13;;;;;;;6.80;4.63;;;;;;;;;;5014202;28;20614;-61
2023/06/11 12:37:39;;;;;;;12.80;10.77;;;;;;;;;;5013868;28;20243;-60
2023/06/11 12:40:05;;;;;;;7.22;4.38;;;;;;;;;;5014035;28;20295;-60
2023/06/11 12:42:32;;;;;;;5.70;4.63;;;;;;;;;;5014583;28;20243;-60
2023/06/11 12:44:57;;;;;;;29.95;5.82;;;;;;;;;;5028683;28;20204;-60
2023/06/11 12:47:22;;;;;;;6.97;4.28;;;;;;;;;;5033661;28;20270;-60
2023/06/11 12:49:48;;;;;;;6.05;4.45;;;;;;;;;;5034239;28;20282;-60
2023/06/11 12:52:13;;;;;;;24.60;5.30;;;;;;;;;;5032893;28;20632;-60
2023/06/11 12:54:39;;;;;;;10.45;4.43;;;;;;;;;;5034039;28;20577;-60
2023/06/11 12:57:04;;;;;;;9.07;4.00;;;;;;;;;;5049393;28;20231;-60
2023/06/11 12:59:30;;;;;;;10.07;4.30;;;;;;;;;;5053636;28;20272;-60
2023/06/11 13:01:55;;;;;;;4.97;3.92;;;;;;;;;;5053603;28;20739;-60
2023/06/11 13:04:20;;;;;;;203.30;16.95;;;;;;;;;;5053479;28;20660;-60
2023/06/11 13:06:46;;;;;;;6.63;3.75;;;;;;;;;;5053218;28;20203;-60
2023/06/11 13:09:11;;;;;;;6.47;4.47;;;;;;;;;;5039712;28;20208;-60
2023/06/11 13:11:37;;;;;;;11.23;4.28;;;;;;;;;;5033945;28;20226;-60
2023/06/11 13:14:02;;;;;;;7.88;4.20;;;;;;;;;;5032886;28;20214;-60
2023/06/11 13:16:27;;;;;;;5.55;3.90;;;;;;;;;;5033372;28;20207;-60
2023/06/11 13:18:53;;;;;;;6.45;3.92;;;;;;;;;;5033435;28;20244;-60
2023/06/11 13:21:18;;;;;;;7.00;4.05;;;;;;;;;;5032609;28;20244;-60
2023/06/11 13:23:43;;;;;;;6.43;4.03;;;;;;;;;;5032505;28;20219;-60
2023/06/11 13:26:09;;;;;;;6.43;4.45;;;;;;;;;;5032562;28;20300;-60
2023/06/11 13:28:34;;;;;;;7.82;4.13;;;;;;;;;;5033538;28;20555;-60
2023/06/11 13:31:00;;;;;;;7.57;3.88;;;;;;;;;;5033149;28;20311;-60
2023/06/11 13:33:25;;;;;;;15.07;4.55;;;;;;;;;;5032492;28;20212;-59
2023/06/11 13:35:51;;;;;;;9.00;4.30;;;;;;;;;;5033306;28;20249;-60
2023/06/11 13:38:16;;;;;;;8.52;3.88;;;;;;;;;;5032531;28;20303;-60
2023/06/11 13:40:42;;;;;;;8.57;4.22;;;;;;;;;;5032902;28;20216;-60
2023/06/11 13:43:07;;;;;;;4.53;3.97;;;;;;;;;;5032479;28;20246;-59
2023/06/11 13:45:32;;;;;;;18.05;4.78;;;;;;;;;;5033125;28;20200;-60
2023/06/11 13:48:11;;;;;;;9.38;4.18;;;;;;;;;;5032376;28;20219;-60
2023/06/11 13:50:36;;;;;;;6.65;4.13;;;;;;;;;;5032663;28;20216;-60
2023/06/11 13:53:01;;;;;;;10.43;4.45;;;;;;;;;;5032459;28;20697;-60
2023/06/11 13:55:27;;;;;;;5.68;4.10;;;;;;;;;;5035058;28;20210;-60
2023/06/11 13:57:52;;;;;;;6.68;4.13;;;;;;;;;;5052385;28;20223;-60
2023/06/11 14:00:18;;;;;;;6.25;4.30;;;;;;;;;;5052442;28;20206;-60
2023/06/11 14:02:43;;;;;;;6.30;4.00;;;;;;;;;;5051917;28;20235;-60
2023/06/11 14:05:08;;;;;;;5.20;4.00;;;;;;;;;;5052144;28;20716;-59
2023/06/11 14:07:34;;;;;;;53.72;7.47;;;;;;;;;;5052459;28;20746;-60
2023/06/11 14:10:04;;;;;;;7.13;4.63;;;;;;;;;;5011126;28;20208;-60
2023/06/11 14:12:30;;;;;;;8.18;4.50;;;;;;;;;;5012314;28;20216;-60
2023/06/11 14:14:57;;;;;;;9.90;4.60;;;;;;;;;;5018037;28;20210;-60
2023/06/11 14:17:22;;;;;;;6.68;4.28;;;;;;;;;;5031609;28;20220;-60
2023/06/11 14:19:47;;;;;;;11.25;4.57;;;;;;;;;;5032277;28;20215;-60
2023/06/11 14:22:13;;;;;;;7.05;4.30;;;;;;;;;;5032126;28;20219;-59
2023/06/11 14:24:38;;;;;;;7.47;4.10;;;;;;;;;;5031825;28;20208;-60
2023/06/11 14:27:03;;;;;;;8.90;4.57;;;;;;;;;;5031892;28;20632;-60
2023/06/11 14:29:29;;;;;;;17.48;5.10;;;;;;;;;;5031859;28;20621;-59